createdAt,value
2022-09-28T00:01:21.198Z,11.8
2022-09-28T00:02:30.433Z,11.8
2022-09-28T00:07:43.642Z,11.7
2022-09-28T00:12:27.128Z,11.5
2022-09-28T00:17:25.284Z,11.7
2022-09-28T00:22:08.628Z,11.4
2022-09-28T00:27:36.672Z,11.3
2022-09-28T00:32:19.658Z,10.7
2022-09-28T00:37:02.633Z,11.1
2022-09-28T00:41:45.575Z,10.7
2022-09-28T00:47:18.974Z,10.7
2022-09-28T00:52:42.089Z,11.1
2022-09-28T00:57:55.272Z,10.6
2022-09-28T01:03:08.259Z,10
2022-09-28T01:07:51.167Z,10.2
2022-09-28T01:13:04.240Z,9.5
2022-09-28T01:18:17.260Z,9.4
2022-09-28T01:24:02.709Z,9.4
2022-09-28T01:28:53.913Z,9.5
2022-09-28T01:30:08.247Z,9.4
2022-09-28T01:34:46.417Z,9.3
2022-09-28T01:40:04.339Z,9.5
2022-09-28T01:45:17.424Z,9.7
2022-09-28T01:50:33.344Z,9.9
2022-09-28T01:55:16.147Z,9.5
2022-09-28T02:00:37.315Z,9.3
2022-09-28T02:05:50.109Z,9.4
2022-09-28T02:10:24.733Z,9.4
2022-09-28T02:15:07.411Z,9
2022-09-28T02:19:50.583Z,9.6
2022-09-28T02:25:03.583Z,9.1
2022-09-28T02:26:17.948Z,9.1
2022-09-28T02:30:45.835Z,9.3
2022-09-28T02:34:09.667Z,8.5
2022-09-28T02:42:02.334Z,8.8
2022-09-28T02:46:55.323Z,9
2022-09-28T02:51:48.487Z,8.6
2022-09-28T02:56:28.397Z,8.6
2022-09-28T02:57:42.728Z,8.6
2022-09-28T03:02:18.923Z,8.8
2022-09-28T03:07:36.840Z,8.7
2022-09-28T03:12:49.821Z,8.2
2022-09-28T03:17:19.696Z,8.2
2022-09-28T03:22:02.657Z,8.1
2022-09-28T03:26:45.583Z,8
2022-09-28T03:31:28.683Z,8.2
2022-09-28T03:36:26.979Z,8.3
2022-09-28T03:40:57.230Z,8.3
2022-09-28T03:46:25.215Z,8.7
2022-09-28T03:51:58.276Z,8.5
2022-09-28T04:00:38.059Z,8.4
2022-09-28T04:01:42.255Z,8.2
2022-09-28T04:13:00.317Z,8.4
2022-09-28T04:14:12.197Z,8.4
2022-09-28T04:19:25.347Z,8.6
2022-09-28T04:24:08.319Z,8.5
2022-09-28T04:28:51.261Z,8.3
2022-09-28T04:33:39.679Z,9
2022-09-28T04:39:11.287Z,8.7
2022-09-28T05:31:15.682Z,8.7
2022-09-28T05:32:24.786Z,8.6
2022-09-28T05:37:07.886Z,8.8
2022-09-28T05:41:51.150Z,8.6
2022-09-28T05:46:34.238Z,8.3
2022-09-28T05:51:17.239Z,8.5
2022-09-28T05:56:30.378Z,8.3
2022-09-28T06:01:13.371Z,8.6
2022-09-28T06:06:26.388Z,8.8
2022-09-28T06:11:09.400Z,8.9
2022-09-28T06:15:52.389Z,9.1
2022-09-28T06:21:25.501Z,9.3
2022-09-28T06:24:59.529Z,9.1
2022-09-28T06:29:42.580Z,9.5
2022-09-28T06:32:40.992Z,9.4
2022-09-28T06:33:45.420Z,9.3
2022-09-28T06:35:05.118Z,9.5
2022-09-28T06:36:09.704Z,9.8
2022-09-28T06:39:53.616Z,10.1
2022-09-28T06:42:47.545Z,9.8
2022-09-28T06:43:57.456Z,10
2022-09-28T06:45:02.480Z,10.2
2022-09-28T06:46:07.010Z,10
2022-09-28T06:47:11.212Z,10.2
2022-09-28T06:51:54.332Z,10.1
2022-09-28T06:52:58.664Z,10.5
2022-09-28T06:55:52.732Z,10.3
2022-09-28T06:56:57.620Z,10.7
2022-09-28T06:58:01.977Z,10.8
2022-09-28T06:59:06.043Z,10.9
2022-09-28T07:03:36.290Z,10.9
2022-09-28T07:08:19.156Z,10.9
2022-09-28T07:13:02.560Z,11
2022-09-28T07:17:57.542Z,11.1
2022-09-28T07:22:43.227Z,11
2022-09-28T07:28:09.252Z,10.6
2022-09-28T07:36:20.935Z,11.1
2022-09-28T07:41:04.301Z,11.4
2022-09-28T07:42:13.627Z,11.5
2022-09-28T07:49:00.717Z,11.9
2022-09-28T07:54:16.689Z,12
2022-09-28T07:59:29.811Z,12.1
2022-09-28T08:04:12.829Z,12.5
2022-09-28T08:09:06.036Z,12.7
2022-09-28T08:13:35.826Z,12.8
2022-09-28T08:14:44.275Z,12.5
2022-09-28T08:15:48.675Z,12.8
2022-09-28T08:18:43.931Z,13.1
2022-09-28T08:19:52.174Z,13
2022-09-28T08:21:01.345Z,12.8
2022-09-28T08:22:11.183Z,13
2022-09-28T08:23:15.776Z,13.1
2022-09-28T08:24:20.351Z,12.7
2022-09-28T08:25:25.011Z,12.5
2022-09-28T08:26:29.291Z,12.2
2022-09-28T08:27:34.935Z,12.6
2022-09-28T08:28:39.308Z,12.8
2022-09-28T08:29:43.795Z,12.9
2022-09-28T08:30:49.136Z,13
2022-09-28T08:31:53.300Z,13.1
2022-09-28T08:33:02.800Z,13.2
2022-09-28T08:34:07.055Z,13.4
2022-09-28T08:35:11.792Z,13.5
2022-09-28T08:36:16.111Z,13.4
2022-09-28T08:37:20.303Z,13
2022-09-28T08:38:26.799Z,13
2022-09-28T08:39:31.334Z,13
2022-09-28T08:40:37.528Z,12.9
2022-09-28T08:41:44.653Z,12.9
2022-09-28T08:42:57.975Z,13.2
2022-09-28T08:44:02.227Z,13.1
2022-09-28T08:45:14.267Z,13
2022-09-28T08:46:29.005Z,13
2022-09-28T08:47:37.010Z,12.6
2022-09-28T08:49:06.836Z,12.9
2022-09-28T08:49:59.412Z,12.5
2022-09-28T08:51:08.687Z,12.6
2022-09-28T08:52:20.175Z,12.8
2022-09-28T08:53:24.398Z,12.8
2022-09-28T08:54:36.939Z,12.8
2022-09-28T08:55:41.238Z,12.9
2022-09-28T08:56:45.654Z,12.7
2022-09-28T08:57:55.943Z,12.5
2022-09-28T08:59:05.943Z,12.4
2022-09-28T09:00:11.743Z,12.2
2022-09-28T09:01:19.783Z,12.3
2022-09-28T09:02:24.981Z,12.5
2022-09-28T09:03:32.022Z,12.6
2022-09-28T09:04:36.807Z,12.5
2022-09-28T09:05:41.139Z,12.7
2022-09-28T09:07:56.910Z,12.9
2022-09-28T09:09:03.958Z,13
2022-09-28T09:10:10.834Z,13.2
2022-09-28T09:11:22.866Z,13.2
2022-09-28T09:12:35.199Z,13
2022-09-28T09:13:53.018Z,13.2
2022-09-28T09:15:05.116Z,13.3
2022-09-28T09:16:14.425Z,13.2
2022-09-28T09:17:29.210Z,13.2
2022-09-28T09:18:38.671Z,13.1
2022-09-28T09:19:48.486Z,13.2
2022-09-28T09:21:57.300Z,13.3
2022-09-28T09:24:13.410Z,13.2
2022-09-28T09:25:25.562Z,13.2
2022-09-28T09:26:37.467Z,13.2
2022-09-28T09:27:41.983Z,13.1
2022-09-28T09:28:54.302Z,13.2
2022-09-28T09:30:01.450Z,13.3
2022-09-28T09:31:14.463Z,13.2
2022-09-28T09:32:29.908Z,13.4
2022-09-28T09:33:44.726Z,13.4
2022-09-28T09:34:54.424Z,13.5
2022-09-28T09:36:01.463Z,13.5
2022-09-28T09:37:16.147Z,13.5
2022-09-28T09:38:30.706Z,13.6
2022-09-28T09:39:42.939Z,13.7
2022-09-28T09:40:57.824Z,13.8
2022-09-28T09:43:59.768Z,14.1
2022-09-28T09:45:14.255Z,14
2022-09-28T09:46:23.768Z,14
2022-09-28T09:47:40.798Z,14.2
2022-09-28T09:48:44.962Z,14.4
2022-09-28T09:49:53.354Z,14.5
2022-09-28T09:51:00.578Z,14.7
2022-09-28T09:52:05.111Z,14.7
2022-09-28T09:55:10.210Z,14.4
2022-09-28T09:56:17.119Z,14.6
2022-09-28T10:01:03.185Z,14.7
2022-09-28T10:05:49.085Z,14.7
2022-09-28T10:06:58.263Z,14.8
2022-09-28T10:21:35.159Z,15.5
2022-09-28T10:22:43.518Z,15.5
2022-09-28T10:27:26.787Z,15.4
2022-09-28T10:28:31.092Z,15.1
2022-09-28T10:29:40.606Z,15.1
2022-09-28T10:30:50.264Z,15.2
2022-09-28T10:31:57.297Z,15.4
2022-09-28T10:33:01.747Z,15.3
2022-09-28T10:34:06.572Z,15
2022-09-28T10:35:13.376Z,14.8
2022-09-28T10:36:23.343Z,15.1
2022-09-28T10:37:31.550Z,14.6
2022-09-28T10:38:36.194Z,14.5
2022-09-28T10:39:40.647Z,14.7
2022-09-28T10:40:50.761Z,14.5
2022-09-28T10:41:55.179Z,14.7
2022-09-28T10:42:59.564Z,14.8
2022-09-28T10:44:05.644Z,14.9
2022-09-28T10:45:10.090Z,15
2022-09-28T10:46:20.729Z,14.8
2022-09-28T10:47:24.750Z,14.8
2022-09-28T10:48:29.041Z,14.8
2022-09-28T10:49:46.946Z,14.6
2022-09-28T10:50:48.536Z,14.7
2022-09-28T10:51:58.043Z,14.8
2022-09-28T10:53:02.420Z,14.6
2022-09-28T10:54:12.096Z,14.8
2022-09-28T10:55:19.446Z,14.8
2022-09-28T10:56:29.541Z,14.8
2022-09-28T10:57:37.249Z,14.7
2022-09-28T10:59:47.974Z,14.7
2022-09-28T11:00:52.524Z,14.7
2022-09-28T11:02:04.632Z,14.7
2022-09-28T11:03:13.935Z,14.9
2022-09-28T11:04:26.555Z,14.9
2022-09-28T11:05:30.626Z,14.9
2022-09-28T11:06:34.895Z,14.9
2022-09-28T11:07:39.280Z,15.1
2022-09-28T11:08:46.460Z,15
2022-09-28T11:09:50.971Z,14.9
2022-09-28T11:10:56.700Z,14.7
2022-09-28T11:12:09.924Z,15
2022-09-28T11:13:19.237Z,15
2022-09-28T11:14:23.636Z,15
2022-09-28T11:15:35.920Z,15.1
2022-09-28T11:18:31.417Z,14.9
2022-09-28T11:19:35.664Z,14.9
2022-09-28T11:20:42.837Z,15
2022-09-28T11:21:46.160Z,14.8
2022-09-28T11:22:55.163Z,15
2022-09-28T11:23:59.409Z,15.2
2022-09-28T11:25:08.684Z,15.1
2022-09-28T11:26:18.867Z,15.1
2022-09-28T11:27:22.237Z,15.3
2022-09-28T11:28:26.400Z,15.5
2022-09-28T11:29:30.723Z,15.8
2022-09-28T11:30:38.041Z,15.7
2022-09-28T11:33:34.903Z,15.8
2022-09-28T11:34:57.827Z,15.9
2022-09-28T11:35:44.596Z,15.9
2022-09-28T11:37:01.643Z,16.1
2022-09-28T11:39:57.925Z,16.2
2022-09-28T11:41:07.122Z,15.7
2022-09-28T11:42:16.745Z,15.6
2022-09-28T11:43:20.791Z,15.7
2022-09-28T11:44:29.418Z,15.9
2022-09-28T11:45:37.124Z,16
2022-09-28T11:46:41.335Z,16.2
2022-09-28T11:47:55.685Z,16.1
2022-09-28T11:50:49.855Z,16.5
2022-09-28T11:53:46.619Z,16.6
2022-09-28T11:54:55.895Z,16.7
2022-09-28T11:55:59.915Z,16.5
2022-09-28T11:57:07.112Z,16.5
2022-09-28T12:01:50.438Z,16.4
2022-09-28T12:06:36.253Z,16.5
2022-09-28T12:11:54.154Z,16.6
2022-09-28T12:17:08.180Z,16.6
2022-09-28T12:18:21.181Z,16.5
2022-09-28T12:23:09.037Z,16
2022-09-28T12:28:45.544Z,16.3
2022-09-28T12:32:18.965Z,16.2
2022-09-28T12:37:06.858Z,16.2
2022-09-28T12:42:45.425Z,16.1
2022-09-28T12:47:38.477Z,15.8
2022-09-28T12:52:24.173Z,15.8
2022-09-28T12:57:59.709Z,15.8
2022-09-28T13:03:40.386Z,15.6
2022-09-28T13:08:33.306Z,15.6
2022-09-28T13:14:03.657Z,15.4
2022-09-28T13:19:37.586Z,15.3
2022-09-28T13:24:32.971Z,15.4
2022-09-28T13:29:02.973Z,15.3
2022-09-28T13:34:41.150Z,15.3
2022-09-28T13:39:16.909Z,15.2
2022-09-28T13:44:39.969Z,14.9
2022-09-28T13:49:57.896Z,15.1
2022-09-28T13:55:18.678Z,14.9
2022-09-28T14:00:39.177Z,14.8
2022-09-28T14:01:48.385Z,15
2022-09-28T14:11:08.078Z,15
2022-09-28T14:12:22.380Z,14.8
2022-09-28T14:27:13.020Z,14.8
2022-09-28T14:28:27.204Z,14.6
2022-09-28T14:29:41.430Z,14.5
2022-09-28T14:34:22.537Z,14.4
2022-09-28T14:39:50.512Z,14.5
2022-09-28T14:45:28.120Z,14.5
2022-09-28T14:50:14.750Z,14.4
2022-09-28T14:55:45.303Z,14.1
2022-09-28T15:01:21.310Z,14.6
2022-09-28T15:09:34.165Z,15.1
2022-09-28T15:14:17.005Z,14.5
2022-09-28T15:24:26.774Z,14.2
2022-09-28T15:29:09.953Z,14.2
2022-09-28T15:34:42.594Z,13.9
2022-09-28T15:35:51.797Z,14
2022-09-28T15:40:25.782Z,14
2022-09-28T15:45:11.192Z,14
2022-09-28T15:50:44.140Z,14
2022-09-28T15:55:59.937Z,13.2
2022-09-28T16:00:29.420Z,13.1
2022-09-28T16:05:12.321Z,13.2
2022-09-28T16:06:26.499Z,13.3
2022-09-28T16:10:56.668Z,13.4
2022-09-28T16:15:47.508Z,13.6
2022-09-28T16:18:47.025Z,13.1
2022-09-28T16:23:14.403Z,13.4
2022-09-28T16:24:23.887Z,13.3
2022-09-28T16:25:28.107Z,13.2
2022-09-28T16:26:32.815Z,12.9
2022-09-28T16:27:37.941Z,12.9
2022-09-28T16:28:44.112Z,13.2
2022-09-28T16:31:02.809Z,13.3
2022-09-28T16:32:07.769Z,13.1
2022-09-28T16:33:17.376Z,12.9
2022-09-28T16:34:26.788Z,12.8
2022-09-28T16:35:31.500Z,12.7
2022-09-28T16:36:35.757Z,12.8
2022-09-28T16:37:40.196Z,12.8
2022-09-28T16:38:45.544Z,12.8
2022-09-28T16:39:50.700Z,12.8
2022-09-28T16:40:55.107Z,13
2022-09-28T16:41:59.396Z,13
2022-09-28T16:43:03.708Z,13.1
2022-09-28T16:44:08.236Z,13.1
2022-09-28T16:45:20.638Z,13.3
2022-09-28T16:46:25.625Z,13.2
2022-09-28T16:47:33.508Z,13.2
2022-09-28T16:48:38.525Z,13.4
2022-09-28T16:49:43.507Z,13.5
2022-09-28T16:50:47.780Z,13.4
2022-09-28T16:51:52.250Z,13.6
2022-09-28T16:53:01.144Z,13.7
2022-09-28T16:54:13.587Z,13.8
2022-09-28T16:55:39.303Z,13.6
2022-09-28T16:56:28.204Z,13.8
2022-09-28T16:57:32.616Z,13.9
2022-09-28T16:58:37.104Z,13.9
2022-09-28T16:59:41.441Z,13.9
2022-09-28T17:00:45.660Z,14
2022-09-28T17:01:50.970Z,14
2022-09-28T17:03:00.440Z,14
2022-09-28T17:04:11.727Z,14.1
2022-09-28T17:05:17.999Z,14.1
2022-09-28T17:06:23.128Z,14.1
2022-09-28T17:07:27.476Z,14.1
2022-09-28T17:08:32.040Z,14.1
2022-09-28T17:09:36.371Z,14.1
2022-09-28T17:10:55.982Z,14.1
2022-09-28T17:11:54.007Z,14.1
2022-09-28T17:12:58.515Z,14.1
2022-09-28T17:14:02.748Z,14.1
2022-09-28T17:15:07.038Z,14.1
2022-09-28T17:16:11.589Z,14.1
2022-09-28T17:17:22.334Z,14.2
2022-09-28T17:18:26.535Z,14.1
2022-09-28T17:19:30.773Z,14.1
2022-09-28T17:20:35.014Z,14.2
2022-09-28T17:21:40.000Z,14
2022-09-28T17:22:44.404Z,14
2022-09-28T17:23:51.451Z,13.9
2022-09-28T17:24:56.112Z,14
2022-09-28T17:26:00.691Z,14
2022-09-28T17:27:05.016Z,13.8
2022-09-28T17:28:09.368Z,13.7
2022-09-28T17:30:23.687Z,13.7
2022-09-28T17:31:27.320Z,13.8
2022-09-28T17:32:31.935Z,13.9
2022-09-28T17:33:36.312Z,13.9
2022-09-28T17:34:40.847Z,14
2022-09-28T17:35:45.096Z,13.9
2022-09-28T17:36:52.315Z,14
2022-09-28T17:37:56.826Z,14
2022-09-28T17:39:01.131Z,14
2022-09-28T17:40:05.668Z,14
2022-09-28T17:41:20.763Z,14
2022-09-28T17:42:24.432Z,14
2022-09-28T17:43:28.991Z,14
2022-09-28T17:44:33.359Z,14
2022-09-28T17:45:38.340Z,14
2022-09-28T17:46:42.624Z,14
2022-09-28T17:47:47.151Z,14.1
2022-09-28T17:48:52.003Z,14.1
2022-09-28T17:49:57.035Z,14.1
2022-09-28T17:51:01.403Z,14.1
2022-09-28T17:52:06.579Z,14.1
2022-09-28T17:53:10.893Z,14.1
2022-09-28T17:54:15.904Z,14.1
2022-09-28T17:55:25.047Z,14.1
2022-09-28T17:56:33.927Z,14.1
2022-09-28T17:57:39.023Z,14.1
2022-09-28T17:58:43.670Z,14.1
2022-09-28T17:59:48.043Z,14.1
2022-09-28T18:00:52.272Z,14.2
2022-09-28T18:01:59.339Z,14
2022-09-28T18:04:04.511Z,14.1
2022-09-28T18:05:08.855Z,14.1
2022-09-28T18:07:20.419Z,14.2
2022-09-28T18:08:24.766Z,14.2
2022-09-28T18:09:29.323Z,14.2
2022-09-28T18:10:33.776Z,14.2
2022-09-28T18:11:38.088Z,14.2
2022-09-28T18:12:45.391Z,14.2
2022-09-28T18:13:49.939Z,14.2
2022-09-28T18:14:54.219Z,14.2
2022-09-28T18:17:02.271Z,14.2
2022-09-28T18:18:12.080Z,14.2
2022-09-28T18:19:16.579Z,14.2
2022-09-28T18:20:20.911Z,14.2
2022-09-28T18:21:25.192Z,14.2
2022-09-28T18:22:29.712Z,14.2
2022-09-28T18:23:34.049Z,14.2
2022-09-28T18:24:38.328Z,14.2
2022-09-28T18:25:45.220Z,14.2
2022-09-28T18:26:49.724Z,14.2
2022-09-28T18:27:56.362Z,14.2
2022-09-28T18:29:04.100Z,14.2
2022-09-28T18:30:08.770Z,14.2
2022-09-28T18:31:16.195Z,14.2
2022-09-28T18:32:20.809Z,14.2
2022-09-28T18:33:25.308Z,14.2
2022-09-28T18:34:29.828Z,14.2
2022-09-28T18:35:37.684Z,14.2
2022-09-28T18:36:47.612Z,14.2
2022-09-28T18:37:52.888Z,14.2
2022-09-28T18:38:57.604Z,14.2
2022-09-28T18:40:01.776Z,14.1
2022-09-28T18:41:06.569Z,14.1
2022-09-28T18:42:13.757Z,14.1
2022-09-28T18:43:18.271Z,14.1
2022-09-28T18:44:22.840Z,14.1
2022-09-28T18:45:27.524Z,14.1
2022-09-28T18:46:32.060Z,14.1
2022-09-28T18:47:40.566Z,14.1
2022-09-28T18:48:45.393Z,14.1
2022-09-28T18:49:50.005Z,14.1
2022-09-28T18:50:54.220Z,14.1
2022-09-28T18:51:58.800Z,14.1
2022-09-28T18:53:03.416Z,14.1
2022-09-28T18:54:13.036Z,14.1
2022-09-28T18:55:17.837Z,14.1
2022-09-28T18:56:22.340Z,14.1
2022-09-28T18:57:26.864Z,14.1
2022-09-28T18:58:33.745Z,14.1
2022-09-28T18:59:38.032Z,14.1
2022-09-28T19:00:44.900Z,14.1
2022-09-28T19:01:49.445Z,14.1
2022-09-28T19:02:54.169Z,14.1
2022-09-28T19:03:58.476Z,14
2022-09-28T19:05:07.967Z,14
2022-09-28T19:06:17.028Z,14
2022-09-28T19:07:21.903Z,14
2022-09-28T19:08:27.712Z,13.9
2022-09-28T19:09:31.192Z,13.9
2022-09-28T19:10:36.236Z,13.9
2022-09-28T19:11:42.192Z,13.9
2022-09-28T19:12:47.508Z,13.8
2022-09-28T19:13:51.704Z,13.8
2022-09-28T19:15:00.115Z,13.8
2022-09-28T19:16:05.739Z,13.7
2022-09-28T19:17:10.092Z,13.2
2022-09-28T19:20:05.309Z,13.3
2022-09-28T19:21:09.929Z,13.3
2022-09-28T19:23:17.468Z,13
2022-09-28T19:24:21.640Z,13.1
2022-09-28T19:25:26.445Z,13
2022-09-28T19:26:30.989Z,13.1
2022-09-28T19:27:40.912Z,13.1
2022-09-28T19:28:45.316Z,13
2022-09-28T19:29:50.225Z,12.8
2022-09-28T19:30:54.926Z,12.9
2022-09-28T19:31:59.387Z,13
2022-09-28T19:33:04.040Z,13
2022-09-28T19:34:10.444Z,12.7
2022-09-28T19:35:12.663Z,12.9
2022-09-28T19:36:17.017Z,12.8
2022-09-28T19:37:21.232Z,13.1
2022-09-28T19:38:25.968Z,13.3
2022-09-28T19:39:35.763Z,13.3
2022-09-28T19:40:40.282Z,13.4
2022-09-28T19:41:44.975Z,13.4
2022-09-28T19:42:49.224Z,13.5
2022-09-28T19:43:53.512Z,13.6
2022-09-28T19:44:58.008Z,13.6
2022-09-28T19:46:02.588Z,13.6
2022-09-28T19:47:07.250Z,13.6
2022-09-28T19:48:15.982Z,12.9
2022-09-28T19:49:20.472Z,12.8
2022-09-28T19:50:25.076Z,13
2022-09-28T19:51:29.416Z,13.3
2022-09-28T19:52:37.644Z,13.2
2022-09-28T19:53:42.333Z,13.3
2022-09-28T19:54:47.305Z,13
2022-09-28T19:55:57.013Z,12.9
2022-09-28T19:57:09.173Z,13.1
2022-09-28T19:58:13.815Z,13.3
2022-09-28T19:59:22.907Z,13.4
2022-09-28T20:00:28.185Z,13.4
2022-09-28T20:01:32.746Z,13.4
2022-09-28T20:02:37.321Z,13.6
2022-09-28T20:03:41.551Z,13.6
2022-09-28T20:04:48.255Z,13.6
2022-09-28T20:05:52.832Z,13.6
2022-09-28T20:06:57.144Z,13.7
2022-09-28T20:09:06.697Z,13.7
2022-09-28T20:10:11.213Z,13.8
2022-09-28T20:11:15.857Z,13.9
2022-09-28T20:12:21.792Z,13.9
2022-09-28T20:13:28.760Z,13.9
2022-09-28T20:14:37.891Z,14
2022-09-28T20:15:37.284Z,14
2022-09-28T20:16:41.624Z,13.8
2022-09-28T20:17:47.200Z,13.5
2022-09-28T20:18:51.664Z,13.7
2022-09-28T20:20:00.018Z,13.8
2022-09-28T20:21:04.660Z,13.9
2022-09-28T20:22:11.370Z,13.9
2022-09-28T20:23:15.560Z,13.7
2022-09-28T20:24:22.033Z,13.6
2022-09-28T20:25:26.472Z,13.7
2022-09-28T20:26:30.667Z,13.8
2022-09-28T20:27:38.324Z,13.9
2022-09-28T20:28:42.584Z,13.9
2022-09-28T20:29:47.037Z,13.9
2022-09-28T20:30:51.488Z,14
2022-09-28T20:31:55.893Z,13.9
2022-09-28T20:33:00.133Z,14
2022-09-28T20:34:06.248Z,14
2022-09-28T20:35:11.141Z,14
2022-09-28T20:36:17.208Z,14
2022-09-28T20:37:22.081Z,13.9
2022-09-28T20:38:27.024Z,13.9
2022-09-28T20:39:31.379Z,13.9
2022-09-28T20:40:40.581Z,13.8
2022-09-28T20:41:44.968Z,13.7
2022-09-28T20:42:49.568Z,13.7
2022-09-28T20:43:54.120Z,13.6
2022-09-28T20:45:03.055Z,13.7
2022-09-28T20:46:07.550Z,13.7
2022-09-28T20:49:02.156Z,13.8
2022-09-28T20:50:06.493Z,13.7
2022-09-28T20:51:13.911Z,13.6
2022-09-28T20:54:08.351Z,13.5
2022-09-28T20:55:12.881Z,13.5
2022-09-28T20:56:17.179Z,13.5
2022-09-28T20:57:22.444Z,13.6
2022-09-28T20:58:32.891Z,13.5
2022-09-28T20:59:39.504Z,13.3
2022-09-28T21:00:52.508Z,13.4
2022-09-28T21:02:07.816Z,13.1
2022-09-28T21:03:12.638Z,13.3
2022-09-28T21:04:18.028Z,13.4
2022-09-28T21:05:22.425Z,13.4
2022-09-28T21:06:26.872Z,13.5
2022-09-28T21:07:34.866Z,13.5
2022-09-28T21:08:39.208Z,13.5
2022-09-28T21:09:44.009Z,13.6
2022-09-28T21:10:48.103Z,13.6
2022-09-28T21:11:52.376Z,13.6
2022-09-28T21:12:56.712Z,13.4
2022-09-28T21:14:01.011Z,13.4
2022-09-28T21:15:08.833Z,13.5
2022-09-28T21:16:18.464Z,13.6
2022-09-28T21:17:22.651Z,13.6
2022-09-28T21:18:29.511Z,13.6
2022-09-28T21:19:37.899Z,13.6
2022-09-28T21:20:43.529Z,13.6
2022-09-28T21:22:51.483Z,13.6
2022-09-28T21:23:57.939Z,13.6
2022-09-28T21:25:02.533Z,13.7
2022-09-28T21:26:07.099Z,13.7
2022-09-28T21:27:11.428Z,13.7
2022-09-28T21:28:15.685Z,13.7
2022-09-28T21:29:20.203Z,13.6
2022-09-28T21:30:25.583Z,13.6
2022-09-28T21:31:30.127Z,13.6
2022-09-28T21:32:37.341Z,13.6
2022-09-28T21:33:41.680Z,13.6
2022-09-28T21:34:46.048Z,13.6
2022-09-28T21:35:52.007Z,13.5
2022-09-28T21:36:56.395Z,13.5
2022-09-28T21:38:00.693Z,13.5
2022-09-28T21:39:10.190Z,13.5
2022-09-28T21:40:11.597Z,13.5
2022-09-28T21:41:16.049Z,13.5
2022-09-28T21:42:20.361Z,13.4
2022-09-28T21:43:24.627Z,13.4
2022-09-28T21:44:29.015Z,13.4
2022-09-28T21:45:34.123Z,13.3
2022-09-28T21:46:39.266Z,13.4
2022-09-28T21:47:43.911Z,13.4
2022-09-28T21:48:48.116Z,13.4
2022-09-28T21:49:55.508Z,13.4
2022-09-28T21:50:59.991Z,13.4
2022-09-28T21:52:04.552Z,13.4
2022-09-28T21:53:08.931Z,13.4
2022-09-28T21:54:13.371Z,13.4
2022-09-28T21:55:18.876Z,13.4
2022-09-28T21:56:23.419Z,13.4
2022-09-28T21:57:28.179Z,13.4
2022-09-28T21:58:34.397Z,13.4
2022-09-28T21:59:38.716Z,13.4
2022-09-28T22:00:42.865Z,13.4
2022-09-28T22:01:47.315Z,13.4
2022-09-28T22:02:51.444Z,13.4
2022-09-28T22:03:56.910Z,13.4
2022-09-28T22:05:01.312Z,13.4
2022-09-28T22:06:06.227Z,13.4
2022-09-28T22:07:11.064Z,13.4
2022-09-28T22:08:15.492Z,13.4
2022-09-28T22:09:19.940Z,13.4
2022-09-28T22:10:24.669Z,13.4
2022-09-28T22:11:32.835Z,13.5
2022-09-28T22:12:37.043Z,13.5
2022-09-28T22:13:41.719Z,13.5
2022-09-28T22:14:46.037Z,13.4
2022-09-28T22:15:50.463Z,13.4
2022-09-28T22:16:55.012Z,13.4
2022-09-28T22:17:59.603Z,13.4
2022-09-28T22:19:04.024Z,13.4
2022-09-28T22:20:10.032Z,13.4
2022-09-28T22:21:14.540Z,13.4
2022-09-28T22:22:29.015Z,13.4
2022-09-28T22:23:30.131Z,13.4
2022-09-28T22:24:35.367Z,13.4
2022-09-28T22:25:39.757Z,13.4
2022-09-28T22:26:43.968Z,13.4
2022-09-28T22:27:48.091Z,13.4
2022-09-28T22:28:52.363Z,13.4
2022-09-28T22:31:07.699Z,13.4
2022-09-28T22:32:12.421Z,13.4
2022-09-28T22:33:18.044Z,13.3
2022-09-28T22:34:22.391Z,13.3
2022-09-28T22:35:28.695Z,13.3
2022-09-28T22:36:32.884Z,13.3
2022-09-28T22:37:37.127Z,13.3
2022-09-28T22:38:41.537Z,13.3
2022-09-28T22:39:45.803Z,13.3
2022-09-28T22:40:50.026Z,13.3
2022-09-28T22:41:58.899Z,13.3
2022-09-28T22:43:03.263Z,13.3
2022-09-28T22:44:07.815Z,13.3
2022-09-28T22:45:12.071Z,13.3
2022-09-28T22:46:16.426Z,13.3
2022-09-28T22:47:20.560Z,13.3
2022-09-28T22:48:24.960Z,13.3
2022-09-28T22:49:29.660Z,13.3
2022-09-28T22:50:35.940Z,13.2
2022-09-28T22:51:41.055Z,13.2
2022-09-28T22:52:45.523Z,13.2
2022-09-28T22:53:50.011Z,13.2
2022-09-28T22:54:54.220Z,13.2
2022-09-28T22:55:59.365Z,13.2
2022-09-28T22:57:05.920Z,13.2
2022-09-28T22:58:10.124Z,13.1
2022-09-28T22:59:14.535Z,13.1
2022-09-28T23:00:18.835Z,13.1
2022-09-28T23:01:23.753Z,13.1
2022-09-28T23:02:31.849Z,13.1
2022-09-28T23:03:36.303Z,13.1
2022-09-28T23:04:43.499Z,13
2022-09-28T23:05:47.984Z,13
2022-09-28T23:06:56.567Z,13
2022-09-28T23:08:00.851Z,13
2022-09-28T23:09:05.267Z,13
2022-09-28T23:10:09.731Z,13
2022-09-28T23:11:14.080Z,13
2022-09-28T23:12:18.239Z,13
2022-09-28T23:13:24.967Z,13
2022-09-28T23:14:29.355Z,13
2022-09-28T23:15:34.855Z,13
2022-09-28T23:16:41.947Z,13
2022-09-28T23:17:46.283Z,13.1
2022-09-28T23:18:58.487Z,13.1
2022-09-28T23:20:02.912Z,13.1
2022-09-28T23:21:07.183Z,13.1
2022-09-28T23:22:11.807Z,13.1
2022-09-28T23:23:16.183Z,13.1
2022-09-28T23:24:20.887Z,13.1
2022-09-28T23:27:16.136Z,13.1
2022-09-28T23:28:20.351Z,13.1
2022-09-28T23:29:24.935Z,13.1
2022-09-28T23:30:29.340Z,13.1
2022-09-28T23:31:33.746Z,13.1
2022-09-28T23:32:37.887Z,13.1
2022-09-28T23:33:42.039Z,13.1
2022-09-28T23:34:46.295Z,13.1
2022-09-28T23:35:54.935Z,13.1
2022-09-28T23:37:01.819Z,13.1
2022-09-28T23:38:06.043Z,13.1
2022-09-28T23:39:16.882Z,13.1
2022-09-28T23:40:21.354Z,13.1
2022-09-28T23:41:25.690Z,13.1
2022-09-28T23:42:29.935Z,13.1
2022-09-28T23:43:34.667Z,13.1
2022-09-28T23:44:39.040Z,13
2022-09-28T23:45:43.491Z,13
2022-09-28T23:46:47.868Z,13
2022-09-28T23:47:52.733Z,13
2022-09-28T23:48:57.124Z,12.9
2022-09-28T23:50:05.255Z,12.9
2022-09-28T23:51:09.659Z,12.9
2022-09-28T23:52:14.412Z,12.9
2022-09-28T23:53:18.737Z,12.9
2022-09-28T23:54:27.076Z,12.9
2022-09-28T23:55:31.299Z,13
2022-09-28T23:56:35.599Z,12.9
2022-09-28T23:57:40.015Z,13
2022-09-28T23:58:44.423Z,13
2022-09-28T23:59:49.615Z,13
